Time;durP1;ratioP1;P1;durP2;ratioP2;P2;SDS_P1;SDS_P2;PMS_P1;PMS_P2;Temp;Humidity;BMP_temperature;BMP_pressure;BME280_temperature;BME280_humidity;BME280_pressure;Samples;Min_cycle;Max_cycle;Signal;HPM_P1;HPM_P2
2021/06/16 00:00:29;;;;;;;;;;;17.50;96.90;;;;;;5115314;28;19912;-75
2021/06/16 00:02:55;;;;;;;;;;;17.50;97.00;;;;;;5116144;28;19957;-75
2021/06/16 00:05:22;;;;;;;;;;;17.50;97.30;;;;;;5116019;28;19960;-74
2021/06/16 00:07:47;;;;;;;;;;;17.50;97.50;;;;;;5115379;28;19904;-75
2021/06/16 00:10:14;;;;;;;;;;;17.50;97.50;;;;;;5116160;28;19911;-76
2021/06/16 00:12:39;;;;;;;;;;;17.40;97.70;;;;;;5116090;28;19904;-76
2021/06/16 00:15:08;;;;;;;;;;;17.50;98.00;;;;;;5115317;28;20273;-75
2021/06/16 00:17:33;;;;;;;;;;;17.50;98.20;;;;;;5116006;28;19911;-74
2021/06/16 00:19:58;;;;;;;;;;;17.40;98.20;;;;;;5115858;28;19910;-75
2021/06/16 00:22:24;;;;;;;;;;;17.40;98.50;;;;;;5114977;28;20015;-74
2021/06/16 00:24:49;;;;;;;;;;;17.40;98.60;;;;;;5115720;28;19954;-75
2021/06/16 00:27:15;;;;;;;;;;;17.40;98.80;;;;;;5115585;28;19912;-75
2021/06/16 00:29:40;;;;;;;;;;;17.40;99.10;;;;;;5115124;28;19908;-74
2021/06/16 00:32:06;;;;;;;;;;;17.40;99.40;;;;;;5115740;28;19904;-75
2021/06/16 00:34:32;;;;;;;;;;;17.30;99.60;;;;;;5115740;28;19907;-74
2021/06/16 00:36:57;;;;;;;;;;;17.30;99.90;;;;;;5114595;28;19911;-75
2021/06/16 00:39:22;;;;;;;;;;;17.30;99.90;;;;;;5115310;28;19914;-75
2021/06/16 00:41:48;;;;;;;;;;;17.30;99.90;;;;;;5115495;28;19949;-75
2021/06/16 00:44:13;;;;;;;;;;;17.30;99.90;;;;;;5114609;28;20262;-74
2021/06/16 00:46:39;;;;;;;;;;;17.20;99.90;;;;;;5115463;28;19911;-75
2021/06/16 00:49:04;;;;;;;;;;;17.20;99.90;;;;;;5115367;28;20263;-75
2021/06/16 00:51:30;;;;;;;;;;;17.20;99.90;;;;;;5114440;28;19912;-75
2021/06/16 00:53:56;;;;;;;;;;;17.20;99.90;;;;;;5115290;28;19904;-75
2021/06/16 00:56:21;;;;;;;;;;;17.20;99.90;;;;;;5114980;28;19912;-76
2021/06/16 00:58:47;;;;;;;;;;;17.20;99.90;;;;;;5114176;28;19927;-75
2021/06/16 01:01:12;;;;;;;;;;;17.20;99.90;;;;;;5115000;28;19911;-75
2021/06/16 01:03:49;;;;;;;;;;;17.10;99.90;;;;;;5114229;28;20263;-75
2021/06/16 01:06:14;;;;;;;;;;;17.10;99.90;;;;;;5115060;28;20308;-75
2021/06/16 01:08:46;;;;;;;;;;;17.00;99.90;;;;;;5114809;28;19962;-75
2021/06/16 01:11:12;;;;;;;;;;;17.00;99.90;;;;;;5113910;28;19922;-75
2021/06/16 01:13:53;;;;;;;;;;;16.90;99.90;;;;;;5114860;28;19993;-75
2021/06/16 01:16:26;;;;;;;;;;;16.90;99.90;;;;;;5113925;28;19912;-75
2021/06/16 01:18:54;;;;;;;;;;;16.90;99.90;;;;;;5113999;28;19998;-75
2021/06/16 01:21:19;;;;;;;;;;;16.90;99.90;;;;;;5114739;28;19923;-74
2021/06/16 01:24:01;;;;;;;;;;;16.80;99.90;;;;;;5114713;28;19908;-75
2021/06/16 01:26:28;;;;;;;;;;;16.80;99.90;;;;;;5113648;28;19950;-75
2021/06/16 01:28:59;;;;;;;;;;;16.80;99.90;;;;;;5114611;28;19904;-74
2021/06/16 01:31:26;;;;;;;;;;;16.80;99.90;;;;;;5114342;28;19919;-74
2021/06/16 01:33:51;;;;;;;;;;;16.70;99.90;;;;;;5113761;28;19933;-76
2021/06/16 01:36:17;;;;;;;;;;;16.70;99.90;;;;;;5114445;28;19911;-75
2021/06/16 01:38:44;;;;;;;;;;;16.70;99.90;;;;;;5113622;28;19948;-74
2021/06/16 01:41:10;;;;;;;;;;;16.70;99.90;;;;;;5114173;28;19903;-75
2021/06/16 01:43:36;;;;;;;;;;;16.60;99.90;;;;;;5114262;28;19903;-75
2021/06/16 01:46:02;;;;;;;;;;;16.60;99.90;;;;;;5113571;28;19907;-74
2021/06/16 01:48:29;;;;;;;;;;;16.60;99.90;;;;;;5114377;28;20362;-75
2021/06/16 01:50:54;;;;;;;;;;;16.60;99.90;;;;;;5113799;28;20384;-75
2021/06/16 01:53:20;;;;;;;;;;;16.60;99.90;;;;;;5113230;28;19990;-75
2021/06/16 01:55:46;;;;;;;;;;;16.50;99.90;;;;;;5114090;28;19910;-75
2021/06/16 01:58:13;;;;;;;;;;;16.50;99.90;;;;;;5113800;28;19990;-74
2021/06/16 02:00:39;;;;;;;;;;;16.50;99.90;;;;;;5113145;28;20387;-75
2021/06/16 02:03:05;;;;;;;;;;;16.40;99.90;;;;;;5114017;28;19904;-75
2021/06/16 02:05:32;;;;;;;;;;;16.40;99.90;;;;;;5113615;28;19958;-74
2021/06/16 02:08:00;;;;;;;;;;;16.40;99.90;;;;;;5113063;28;20303;-75
2021/06/16 02:10:29;;;;;;;;;;;16.40;99.90;;;;;;5113717;28;20385;-76
2021/06/16 02:12:57;;;;;;;;;;;16.40;99.90;;;;;;5113653;28;19904;-75
2021/06/16 02:15:24;;;;;;;;;;;16.40;99.90;;;;;;5113332;28;19927;-75
2021/06/16 02:17:52;;;;;;;;;;;16.30;99.90;;;;;;5113475;28;20018;-74
2021/06/16 02:20:24;;;;;;;;;;;16.30;99.90;;;;;;5113611;28;20414;-74
2021/06/16 02:22:50;;;;;;;;;;;16.30;99.90;;;;;;5113078;28;19992;-75
2021/06/16 02:25:16;;;;;;;;;;;16.30;99.90;;;;;;5113639;28;19904;-74
2021/06/16 02:27:42;;;;;;;;;;;16.30;99.90;;;;;;5113421;28;19964;-75
2021/06/16 02:30:08;;;;;;;;;;;16.30;99.90;;;;;;5112944;28;19950;-74
2021/06/16 02:32:34;;;;;;;;;;;16.30;99.90;;;;;;5113501;28;19904;-74
2021/06/16 02:34:59;;;;;;;;;;;16.30;99.90;;;;;;5112873;28;19911;-75
2021/06/16 02:37:25;;;;;;;;;;;16.30;99.90;;;;;;5113308;28;20347;-74
2021/06/16 02:40:01;;;;;;;;;;;16.30;99.90;;;;;;5113543;28;19930;-75
2021/06/16 02:42:30;;;;;;;;;;;16.30;99.90;;;;;;5113127;28;19904;-75
2021/06/16 02:44:56;;;;;;;;;;;16.20;99.90;;;;;;5113361;28;19904;-75
2021/06/16 02:47:21;;;;;;;;;;;16.30;99.90;;;;;;5113500;28;20024;-75
2021/06/16 02:49:53;;;;;;;;;;;16.30;99.90;;;;;;5112649;28;19908;-75
2021/06/16 02:52:19;;;;;;;;;;;16.30;99.90;;;;;;5113411;28;19910;-75
2021/06/16 02:54:46;;;;;;;;;;;16.20;99.90;;;;;;5113177;28;19908;-75
2021/06/16 02:57:14;;;;;;;;;;;16.20;99.90;;;;;;5112704;28;20014;-75
2021/06/16 02:59:40;;;;;;;;;;;16.20;99.90;;;;;;5113184;28;19955;-75
2021/06/16 03:02:05;;;;;;;;;;;16.30;99.90;;;;;;5113134;28;19911;-75
2021/06/16 03:04:33;;;;;;;;;;;16.20;99.90;;;;;;5112407;28;19914;-74
2021/06/16 03:07:00;;;;;;;;;;;16.20;99.90;;;;;;5113141;28;19904;-76
2021/06/16 03:09:26;;;;;;;;;;;16.20;99.90;;;;;;5113223;28;19904;-75
2021/06/16 03:11:52;;;;;;;;;;;16.20;99.90;;;;;;5112113;28;20290;-75
2021/06/16 03:14:24;;;;;;;;;;;16.20;99.90;;;;;;5112951;28;19904;-74
2021/06/16 03:16:53;;;;;;;;;;;16.20;99.90;;;;;;5112928;28;19919;-75
2021/06/16 03:19:20;;;;;;;;;;;16.10;99.90;;;;;;5112192;28;19903;-75
2021/06/16 03:21:46;;;;;;;;;;;16.10;99.90;;;;;;5112956;28;20315;-75
2021/06/16 03:24:12;;;;;;;;;;;16.20;99.90;;;;;;5111998;28;20472;-75
2021/06/16 03:26:38;;;;;;;;;;;16.20;99.90;;;;;;5113603;28;19911;-75
2021/06/16 03:29:04;;;;;;;;;;;16.20;99.90;;;;;;5113143;28;20263;-75
2021/06/16 03:31:29;;;;;;;;;;;16.20;99.90;;;;;;5112374;28;20623;-75
2021/06/16 03:33:55;;;;;;;;;;;16.20;99.90;;;;;;5113257;28;20360;-75
2021/06/16 03:36:21;;;;;;;;;;;16.20;99.90;;;;;;5112795;28;19915;-75
2021/06/16 03:38:48;;;;;;;;;;;16.20;99.90;;;;;;5112273;28;19911;-74
2021/06/16 03:41:13;;;;;;;;;;;16.20;99.90;;;;;;5116258;28;19911;-75
2021/06/16 03:43:40;;;;;;;;;;;16.20;99.90;;;;;;5116472;28;19904;-75
2021/06/16 03:46:06;;;;;;;;;;;16.20;99.90;;;;;;5115761;28;19977;-75
2021/06/16 03:48:33;;;;;;;;;;;16.30;99.90;;;;;;5116470;28;19904;-74
2021/06/16 03:50:59;;;;;;;;;;;16.30;99.90;;;;;;5116297;28;19903;-75
2021/06/16 03:53:24;;;;;;;;;;;16.30;99.90;;;;;;5115763;28;20340;-74
2021/06/16 03:55:50;;;;;;;;;;;16.30;99.90;;;;;;5116483;28;19904;-75
2021/06/16 03:58:16;;;;;;;;;;;16.30;99.90;;;;;;5116037;28;19903;-75
2021/06/16 04:00:42;;;;;;;;;;;16.40;99.90;;;;;;5115406;28;19903;-75
2021/06/16 04:03:09;;;;;;;;;;;16.40;99.90;;;;;;5116122;28;19999;-74
2021/06/16 04:05:38;;;;;;;;;;;16.40;99.90;;;;;;5115925;28;19908;-74
2021/06/16 04:08:04;;;;;;;;;;;16.40;99.90;;;;;;5115393;28;19937;-74
2021/06/16 04:10:30;;;;;;;;;;;16.40;99.90;;;;;;5115958;28;20333;-74
2021/06/16 04:12:56;;;;;;;;;;;16.50;99.90;;;;;;5115907;28;19995;-74
2021/06/16 04:15:21;;;;;;;;;;;16.50;99.90;;;;;;5114980;28;19990;-74
2021/06/16 04:17:47;;;;;;;;;;;16.50;99.90;;;;;;5115846;28;19964;-74
2021/06/16 04:20:13;;;;;;;;;;;16.60;99.90;;;;;;5115837;28;19904;-74
2021/06/16 04:22:39;;;;;;;;;;;16.60;99.90;;;;;;5114955;28;19926;-75
2021/06/16 04:25:06;;;;;;;;;;;16.70;99.90;;;;;;5115732;28;19939;-75
2021/06/16 04:27:31;;;;;;;;;;;16.70;99.90;;;;;;5115039;28;19907;-75
2021/06/16 04:29:57;;;;;;;;;;;16.10;99.90;;;;;;5115540;28;19949;-75
2021/06/16 04:32:22;;;;;;;;;;;16.80;99.90;;;;;;5115516;28;19908;-75
2021/06/16 04:34:48;;;;;;;;;;;16.90;99.90;;;;;;5114645;28;19908;-76
2021/06/16 04:37:13;;;;;;;;;;;16.90;99.90;;;;;;5115511;28;20411;-76
2021/06/16 04:39:39;;;;;;;;;;;17.00;99.90;;;;;;5115647;28;20248;-75
2021/06/16 04:42:05;;;;;;;;;;;17.10;99.90;;;;;;5114615;28;19904;-74
2021/06/16 04:44:30;;;;;;;;;;;17.10;99.90;;;;;;5115277;28;19910;-75
2021/06/16 04:46:56;;;;;;;;;;;17.10;99.90;;;;;;5115025;28;19994;-75
2021/06/16 04:49:22;;;;;;;;;;;17.20;99.90;;;;;;5114425;28;19904;-75
2021/06/16 04:51:48;;;;;;;;;;;17.20;99.90;;;;;;5113879;28;20340;-75
2021/06/16 04:54:13;;;;;;;;;;;17.30;99.90;;;;;;5115072;28;19956;-75
2021/06/16 04:56:40;;;;;;;;;;;17.40;99.90;;;;;;5114209;28;20302;-76
2021/06/16 04:59:05;;;;;;;;;;;17.50;99.90;;;;;;5114601;28;19915;-73
2021/06/16 05:01:31;;;;;;;;;;;17.50;99.90;;;;;;5114633;28;19968;-75
2021/06/16 05:03:57;;;;;;;;;;;17.60;99.90;;;;;;5114303;28;19998;-75
2021/06/16 05:06:23;;;;;;;;;;;17.70;99.90;;;;;;5114964;28;19915;-75
2021/06/16 05:08:49;;;;;;;;;;;17.80;99.90;;;;;;5114934;28;19903;-74
2021/06/16 05:11:15;;;;;;;;;;;17.80;99.90;;;;;;5113928;28;19904;-75
2021/06/16 05:13:40;;;;;;;;;;;17.90;99.90;;;;;;5114728;28;19911;-75
2021/06/16 05:16:06;;;;;;;;;;;18.00;99.90;;;;;;5114509;28;19912;-75
2021/06/16 05:18:32;;;;;;;;;;;18.10;99.90;;;;;;5113813;28;19904;-75
2021/06/16 05:20:58;;;;;;;;;;;18.10;99.90;;;;;;5114431;28;19904;-75
2021/06/16 05:23:27;;;;;;;;;;;18.20;99.90;;;;;;5114633;28;19904;-75
2021/06/16 05:25:53;;;;;;;;;;;18.30;99.90;;;;;;5114030;28;19990;-75
2021/06/16 05:28:18;;;;;;;;;;;18.30;99.90;;;;;;5114501;28;19953;-75
2021/06/16 05:30:43;;;;;;;;;;;18.30;99.90;;;;;;5113997;28;19994;-77
2021/06/16 05:33:09;;;;;;;;;;;18.40;99.90;;;;;;5114530;28;20003;-75
2021/06/16 05:35:35;;;;;;;;;;;18.40;99.90;;;;;;5114642;28;19949;-75
2021/06/16 05:38:00;;;;;;;;;;;18.40;99.90;;;;;;5113705;28;20170;-75
2021/06/16 05:40:26;;;;;;;;;;;18.50;99.90;;;;;;5114359;28;20414;-75
2021/06/16 05:42:51;;;;;;;;;;;18.50;99.90;;;;;;5114431;28;19903;-75
2021/06/16 05:45:17;;;;;;;;;;;18.60;99.90;;;;;;5113380;28;19903;-75
2021/06/16 05:47:42;;;;;;;;;;;18.60;99.90;;;;;;5113917;28;19904;-74
2021/06/16 05:50:08;;;;;;;;;;;18.60;99.90;;;;;;5114086;28;20331;-75
2021/06/16 05:52:34;;;;;;;;;;;18.70;99.90;;;;;;5113785;28;19956;-76
2021/06/16 05:54:59;;;;;;;;;;;18.70;99.90;;;;;;5114589;28;19903;-74
2021/06/16 05:57:25;;;;;;;;;;;18.70;99.90;;;;;;5114017;28;20317;-75
2021/06/16 05:59:50;;;;;;;;;;;18.80;99.90;;;;;;5112878;28;19927;-75
2021/06/16 06:02:16;;;;;;;;;;;18.90;99.90;;;;;;5113383;28;19904;-75
2021/06/16 06:04:41;;;;;;;;;;;19.00;99.90;;;;;;5113940;28;20343;-75
2021/06/16 06:07:07;;;;;;;;;;;19.00;99.90;;;;;;5113075;28;20293;-75
2021/06/16 06:09:32;;;;;;;;;;;19.10;99.90;;;;;;5114033;28;19904;-76
2021/06/16 06:11:58;;;;;;;;;;;19.10;99.90;;;;;;5113866;28;20271;-75
2021/06/16 06:14:24;;;;;;;;;;;19.20;99.90;;;;;;5112959;28;19995;-75
2021/06/16 06:16:50;;;;;;;;;;;19.20;99.90;;;;;;5113995;28;20010;-75
2021/06/16 06:19:15;;;;;;;;;;;19.30;99.90;;;;;;5113732;28;19911;-75
2021/06/16 06:21:41;;;;;;;;;;;19.40;99.90;;;;;;5112721;28;20399;-75
2021/06/16 06:24:06;;;;;;;;;;;19.40;99.90;;;;;;5113724;28;19928;-75
2021/06/16 06:26:33;;;;;;;;;;;19.50;99.90;;;;;;5113545;28;19904;-75
2021/06/16 06:28:58;;;;;;;;;;;19.60;99.90;;;;;;5112648;28;19903;-75
2021/06/16 06:31:24;;;;;;;;;;;19.70;99.90;;;;;;5113501;28;19904;-75
2021/06/16 06:33:49;;;;;;;;;;;19.70;99.90;;;;;;5113473;28;19903;-74
2021/06/16 06:36:15;;;;;;;;;;;19.80;99.90;;;;;;5112426;28;19911;-75
2021/06/16 06:38:40;;;;;;;;;;;19.80;99.90;;;;;;5113539;28;19965;-74
2021/06/16 06:41:06;;;;;;;;;;;19.80;99.90;;;;;;5112401;28;19911;-75
2021/06/16 06:43:31;;;;;;;;;;;19.90;99.90;;;;;;5113436;28;19948;-75
2021/06/16 06:45:57;;;;;;;;;;;20.00;99.90;;;;;;5113342;28;20400;-75
2021/06/16 06:48:22;;;;;;;;;;;20.10;99.90;;;;;;5112500;28;19962;-75
2021/06/16 06:50:48;;;;;;;;;;;20.10;99.90;;;;;;5113134;28;19948;-75
2021/06/16 06:53:14;;;;;;;;;;;20.20;99.90;;;;;;5113415;28;19990;-75
2021/06/16 06:55:42;;;;;;;;;;;20.30;99.90;;;;;;5112546;28;19904;-75
2021/06/16 06:58:08;;;;;;;;;;;20.40;99.90;;;;;;5113072;28;19912;-75
2021/06/16 07:00:33;;;;;;;;;;;20.50;99.90;;;;;;5113322;28;19908;-75
2021/06/16 07:02:58;;;;;;;;;;;20.60;99.90;;;;;;5112473;28;20355;-75
2021/06/16 07:05:25;;;;;;;;;;;20.70;99.90;;;;;;5113269;28;20396;-76
2021/06/16 07:07:51;;;;;;;;;;;20.70;99.90;;;;;;5113176;28;19914;-74
2021/06/16 07:10:16;;;;;;;;;;;20.80;99.90;;;;;;5112452;28;19903;-74
2021/06/16 07:12:42;;;;;;;;;;;20.90;99.90;;;;;;5113227;28;19904;-76
2021/06/16 07:15:08;;;;;;;;;;;21.00;99.90;;;;;;5114802;28;19908;-75
2021/06/16 07:17:34;;;;;;;;;;;21.10;99.90;;;;;;5116371;28;19934;-75
2021/06/16 07:19:59;;;;;;;;;;;21.10;99.90;;;;;;5116965;28;20352;-75
2021/06/16 07:22:25;;;;;;;;;;;21.20;99.90;;;;;;5116816;28;19916;-76
2021/06/16 07:24:50;;;;;;;;;;;21.30;99.90;;;;;;5116144;28;19908;-75
2021/06/16 07:27:16;;;;;;;;;;;21.30;99.90;;;;;;5116731;28;19953;-75
2021/06/16 07:29:41;;;;;;;;;;;21.40;99.90;;;;;;5116716;28;19933;-74
2021/06/16 07:32:08;;;;;;;;;;;21.50;99.90;;;;;;5115852;28;19903;-74
2021/06/16 07:34:33;;;;;;;;;;;21.50;99.80;;;;;;5116820;28;19946;-75
2021/06/16 07:36:59;;;;;;;;;;;21.60;99.70;;;;;;5116384;28;19959;-74
2021/06/16 07:39:24;;;;;;;;;;;21.70;99.30;;;;;;5115971;28;19904;-75
2021/06/16 07:41:50;;;;;;;;;;;21.70;99.00;;;;;;5116633;28;20343;-76
2021/06/16 07:44:16;;;;;;;;;;;21.80;98.90;;;;;;5116618;28;19952;-75
2021/06/16 07:46:41;;;;;;;;;;;21.90;98.60;;;;;;5115929;28;20041;-75
2021/06/16 07:49:07;;;;;;;;;;;22.00;98.60;;;;;;5116573;28;19937;-74
2021/06/16 07:51:32;;;;;;;;;;;22.00;98.30;;;;;;5115562;28;20395;-76
2021/06/16 07:53:57;;;;;;;;;;;22.10;98.10;;;;;;5116365;28;19910;-76
2021/06/16 07:56:24;;;;;;;;;;;22.20;97.90;;;;;;5116384;28;19947;-75
2021/06/16 07:58:50;;;;;;;;;;;22.30;97.90;;;;;;5115036;28;19924;-75
2021/06/16 08:01:16;;;;;;;;;;;22.40;97.20;;;;;;5115871;28;20376;-75
2021/06/16 08:03:42;;;;;;;;;;;22.50;97.00;;;;;;5116258;28;19972;-75
2021/06/16 08:06:07;;;;;;;;;;;22.50;96.50;;;;;;5115433;28;19903;-75
2021/06/16 08:08:33;;;;;;;;;;;22.60;95.60;;;;;;5116139;28;20311;-76
2021/06/16 08:10:58;;;;;;;;;;;22.60;94.90;;;;;;5116063;28;19904;-75
2021/06/16 08:13:24;;;;;;;;;;;22.70;94.40;;;;;;5115247;28;20377;-75
2021/06/16 08:15:49;;;;;;;;;;;22.70;94.10;;;;;;5115951;28;19990;-76
2021/06/16 08:18:15;;;;;;;;;;;22.80;94.20;;;;;;5115960;28;19911;-76
2021/06/16 08:20:40;;;;;;;;;;;22.90;93.40;;;;;;5115443;28;19908;-74
2021/06/16 08:23:07;;;;;;;;;;;23.00;92.70;;;;;;5115844;28;19904;-75
2021/06/16 08:25:36;;;;;;;;;;;23.00;92.60;;;;;;5115511;28;19911;-76
2021/06/16 08:28:02;;;;;;;;;;;23.10;92.50;;;;;;5114884;28;19908;-75
2021/06/16 08:30:30;;;;;;;;;;;23.20;92.40;;;;;;5115422;28;19911;-75
2021/06/16 08:32:56;;;;;;;;;;;23.30;92.30;;;;;;5115779;28;19911;-75
2021/06/16 08:35:21;;;;;;;;;;;23.40;92.00;;;;;;5115037;28;19921;-75
2021/06/16 08:37:47;;;;;;;;;;;23.50;91.80;;;;;;5115583;28;20267;-75
2021/06/16 08:40:14;;;;;;;;;;;23.50;92.10;;;;;;5115562;28;19904;-75
2021/06/16 08:42:40;;;;;;;;;;;23.60;91.60;;;;;;5114513;28;19951;-75
2021/06/16 08:45:06;;;;;;;;;;;23.70;92.10;;;;;;5115388;28;19903;-75
2021/06/16 08:47:33;;;;;;;;;;;23.80;91.80;;;;;;5115381;28;19908;-75
2021/06/16 08:50:02;;;;;;;;;;;23.80;91.30;;;;;;5114576;28;19903;-76
2021/06/16 08:52:27;;;;;;;;;;;23.80;90.80;;;;;;5115078;28;19903;-75
2021/06/16 08:54:53;;;;;;;;;;;23.90;91.00;;;;;;5114514;28;19903;-75
2021/06/16 08:57:18;;;;;;;;;;;24.00;90.80;;;;;;5114860;28;19912;-75
2021/06/16 08:59:44;;;;;;;;;;;24.00;90.70;;;;;;5115053;28;19923;-75
2021/06/16 09:02:09;;;;;;;;;;;24.10;90.50;;;;;;5114186;28;20352;-76
2021/06/16 09:04:48;;;;;;;;;;;24.10;90.00;;;;;;5115177;28;19903;-75
2021/06/16 09:07:24;;;;;;;;;;;24.20;89.50;;;;;;5114946;28;19904;-75
2021/06/16 09:10:05;;;;;;;;;;;24.30;89.60;;;;;;5114093;28;19988;-76
2021/06/16 09:12:31;;;;;;;;;;;24.30;89.00;;;;;;5115188;28;19980;-74
2021/06/16 09:14:57;;;;;;;;;;;24.40;89.10;;;;;;5114713;28;19904;-75
2021/06/16 09:17:23;;;;;;;;;;;24.10;89.00;;;;;;5113883;28;19922;-75
2021/06/16 09:19:56;;;;;;;;;;;24.60;89.00;;;;;;5114922;28;19904;-75
2021/06/16 09:22:35;;;;;;;;;;;24.60;88.60;;;;;;5114899;28;19903;-75
2021/06/16 09:25:03;;;;;;;;;;;24.70;88.50;;;;;;5114135;28;20391;-75
2021/06/16 09:27:35;;;;;;;;;;;24.70;87.10;;;;;;5114618;28;19914;-74
2021/06/16 09:30:00;;;;;;;;;;;24.80;87.20;;;;;;5113737;28;19903;-74
2021/06/16 09:32:39;;;;;;;;;;;24.80;86.50;;;;;;5114500;28;20032;-74
2021/06/16 09:35:21;;;;;;;;;;;24.90;86.40;;;;;;5114754;28;20007;-76
2021/06/16 09:37:46;;;;;;;;;;;24.90;87.30;;;;;;5113210;28;19916;-76
2021/06/16 09:40:12;;;;;;;;;;;25.00;86.60;;;;;;5114080;28;20343;-74
2021/06/16 09:42:37;;;;;;;;;;;25.00;85.70;;;;;;5114421;28;19904;-74
2021/06/16 09:45:03;;;;;;;;;;;25.00;86.20;;;;;;5113431;28;19903;-75
2021/06/16 09:47:29;;;;;;;;;;;25.10;86.20;;;;;;5114272;28;19960;-74
2021/06/16 09:50:01;;;;;;;;;;;25.10;85.40;;;;;;5114542;28;19904;-75
2021/06/16 09:52:36;;;;;;;;;;;25.20;85.80;;;;;;5113694;28;20294;-75
2021/06/16 09:55:25;;;;;;;;;;;25.20;85.20;;;;;;5114018;28;19955;-74
2021/06/16 09:58:08;;;;;;;;;;;25.30;85.30;;;;;;5100384;28;19919;-76
2021/06/16 10:00:38;;;;;;;;;;;25.30;84.70;;;;;;5113762;28;20442;-76
2021/06/16 10:03:06;;;;;;;;;;;25.40;84.80;;;;;;5113936;28;19914;-76
2021/06/16 10:05:32;;;;;;;;;;;25.40;84.80;;;;;;5113244;28;20376;-75
2021/06/16 10:07:57;;;;;;;;;;;25.50;84.30;;;;;;5113710;28;19949;-74
2021/06/16 10:10:23;;;;;;;;;;;25.60;84.50;;;;;;5113885;28;19903;-74
2021/06/16 10:12:51;;;;;;;;;;;25.60;83.90;;;;;;5113225;28;19995;-74
2021/06/16 10:15:19;;;;;;;;;;;25.70;83.70;;;;;;5113635;28;19903;-74
2021/06/16 10:17:45;;;;;;;;;;;25.80;83.80;;;;;;5113727;28;19912;-74
2021/06/16 10:20:13;;;;;;;;;;;25.90;83.60;;;;;;5112693;28;20252;-74
2021/06/16 10:22:38;;;;;;;;;;;25.90;83.60;;;;;;5113970;28;19911;-75
2021/06/16 10:25:05;;;;;;;;;;;26.10;83.00;;;;;;5113473;28;19904;-75
2021/06/16 10:27:32;;;;;;;;;;;26.20;82.70;;;;;;5113048;28;19903;-76
2021/06/16 10:30:03;;;;;;;;;;;26.20;81.70;;;;;;5113586;28;19910;-76
2021/06/16 10:32:36;;;;;;;;;;;26.30;82.30;;;;;;5113747;28;19990;-76
2021/06/16 10:35:02;;;;;;;;;;;26.40;83.10;;;;;;5112958;28;19908;-75
2021/06/16 10:37:31;;;;;;;;;;;26.40;81.40;;;;;;5113662;28;19912;-75
2021/06/16 10:40:15;;;;;;;;;;;26.40;80.50;;;;;;5113422;28;20362;-75
2021/06/16 10:42:58;;;;;;;;;;;26.50;80.30;;;;;;5113679;28;19927;-75
2021/06/16 10:45:28;;;;;;;;;;;26.50;80.00;;;;;;5113760;28;19903;-75
2021/06/16 10:47:57;;;;;;;;;;;26.60;80.20;;;;;;5112707;28;19994;-75
2021/06/16 10:50:42;;;;;;;;;;;26.60;79.20;;;;;;5117395;28;19910;-75
2021/06/16 10:53:08;;;;;;;;;;;26.70;79.20;;;;;;5117352;28;19903;-75
2021/06/16 10:55:51;;;;;;;;;;;26.70;78.40;;;;;;5116826;28;19998;-75
2021/06/16 10:58:17;;;;;;;;;;;26.80;79.00;;;;;;5117439;28;19964;-74
2021/06/16 11:00:42;;;;;;;;;;;26.80;78.90;;;;;;5117163;28;19915;-74
2021/06/16 11:03:08;;;;;;;;;;;26.90;78.90;;;;;;5116872;28;19903;-74
2021/06/16 11:05:35;;;;;;;;;;;27.00;78.90;;;;;;5117197;28;19904;-74
2021/06/16 11:08:03;;;;;;;;;;;27.10;78.60;;;;;;5117336;28;19904;-74
2021/06/16 11:10:47;;;;;;;;;;;27.10;78.10;;;;;;5116350;28;19907;-75
2021/06/16 11:13:32;;;;;;;;;;;27.20;78.50;;;;;;5117318;28;19964;-75
2021/06/16 11:15:57;;;;;;;;;;;27.20;78.50;;;;;;5116202;28;19919;-75
2021/06/16 11:18:27;;;;;;;;;;;27.20;77.50;;;;;;5117340;28;19904;-74
2021/06/16 11:20:57;;;;;;;;;;;27.20;77.30;;;;;;5117225;28;19903;-74
2021/06/16 11:23:24;;;;;;;;;;;27.30;77.60;;;;;;5116281;28;19922;-74
2021/06/16 11:25:51;;;;;;;;;;;27.30;77.80;;;;;;5117009;28;19988;-74
2021/06/16 11:28:17;;;;;;;;;;;27.50;77.40;;;;;;5116948;28;19904;-75
2021/06/16 11:30:47;;;;;;;;;;;27.60;77.30;;;;;;5116100;28;19903;-74
2021/06/16 11:33:15;;;;;;;;;;;27.70;77.50;;;;;;5116607;28;20367;-75
2021/06/16 11:35:42;;;;;;;;;;;27.80;76.90;;;;;;5116522;28;19939;-75
2021/06/16 11:38:34;;;;;;;;;;;27.90;76.60;;;;;;5116517;28;19995;-75
2021/06/16 11:41:06;;;;;;;;;;;27.90;76.40;;;;;;5111348;28;19911;-75
2021/06/16 11:43:41;;;;;;;;;;;28.00;76.00;;;;;;5115852;28;20344;-75
2021/06/16 11:46:09;;;;;;;;;;;28.10;76.00;;;;;;5116672;28;19908;-75
2021/06/16 11:48:35;;;;;;;;;;;28.30;76.80;;;;;;5116986;28;19939;-75
2021/06/16 11:51:00;;;;;;;;;;;28.50;75.80;;;;;;5116474;28;19976;-75
2021/06/16 11:53:30;;;;;;;;;;;28.60;75.40;;;;;;5116612;28;19904;-76
2021/06/16 11:55:58;;;;;;;;;;;28.70;75.30;;;;;;5116514;28;19919;-75
2021/06/16 11:58:34;;;;;;;;;;;28.90;73.90;;;;;;5115878;28;20287;-76
2021/06/16 12:01:16;;;;;;;;;;;28.90;73.30;;;;;;5115257;28;20451;-75
2021/06/16 12:03:43;;;;;;;;;;;29.00;72.90;;;;;;5116453;28;19908;-75
2021/06/16 12:06:11;;;;;;;;;;;29.00;72.90;;;;;;5115571;28;19918;-75
2021/06/16 12:08:37;;;;;;;;;;;29.10;71.80;;;;;;5116672;28;19910;-75
2021/06/16 12:11:22;;;;;;;;;;;29.10;72.80;;;;;;5116650;28;19908;-76
2021/06/16 12:14:04;;;;;;;;;;;29.10;72.00;;;;;;5115478;28;19904;-75
2021/06/16 12:16:35;;;;;;;;;;;29.10;72.10;;;;;;5115929;28;20010;-75
2021/06/16 12:19:20;;;;;;;;;;;29.20;72.00;;;;;;5115263;28;20014;-76
2021/06/16 12:22:05;;;;;;;;;;;29.40;72.10;;;;;;5116177;28;19919;-75
2021/06/16 12:24:39;;;;;;;;;;;29.50;70.60;;;;;;5116190;28;19907;-74
2021/06/16 12:27:10;;;;;;;;;;;29.70;71.10;;;;;;5115053;28;19995;-76
2021/06/16 12:29:38;;;;;;;;;;;29.70;70.40;;;;;;5115518;28;19904;-76
2021/06/16 12:32:06;;;;;;;;;;;29.70;70.50;;;;;;5115785;28;20310;-75
2021/06/16 12:37:16;;;;;;;;;;;29.60;70.60;;;;;;5115941;28;19912;-74
2021/06/16 12:39:52;;;;;;;;;;;29.60;71.30;;;;;;5115436;28;19957;-74
2021/06/16 12:42:17;;;;;;;;;;;29.60;70.60;;;;;;5115604;28;19911;-75
2021/06/16 12:44:44;;;;;;;;;;;29.70;69.80;;;;;;5115506;28;19903;-74
2021/06/16 12:47:12;;;;;;;;;;;29.90;70.10;;;;;;5114428;28;19908;-75
2021/06/16 12:49:44;;;;;;;;;;;30.00;70.00;;;;;;5115285;28;19957;-73
2021/06/16 12:52:11;;;;;;;;;;;30.30;69.50;;;;;;5115138;28;19949;-75
2021/06/16 12:54:36;;;;;;;;;;;30.50;67.90;;;;;;5114450;28;19910;-76
2021/06/16 12:57:07;;;;;;;;;;;30.60;67.30;;;;;;5115309;28;20003;-76
2021/06/16 12:59:33;;;;;;;;;;;30.60;68.10;;;;;;5114821;28;19915;-75
2021/06/16 13:01:59;;;;;;;;;;;30.70;67.90;;;;;;5114266;28;19995;-75
2021/06/16 13:04:43;;;;;;;;;;;30.80;67.50;;;;;;5115214;28;19947;-75
2021/06/16 13:07:08;;;;;;;;;;;30.90;67.20;;;;;;5114968;28;19910;-76
2021/06/16 13:09:34;;;;;;;;;;;31.00;66.00;;;;;;5114282;28;19903;-74
2021/06/16 13:12:06;;;;;;;;;;;31.10;66.30;;;;;;5113957;28;19904;-74
2021/06/16 13:14:35;;;;;;;;;;;31.30;66.10;;;;;;5114612;28;20411;-74
2021/06/16 13:17:08;;;;;;;;;;;31.30;65.40;;;;;;5113777;28;19979;-76
2021/06/16 13:19:52;;;;;;;;;;;31.40;65.50;;;;;;5114666;28;19904;-74
2021/06/16 13:22:18;;;;;;;;;;;31.40;65.20;;;;;;5114193;28;19908;-76
2021/06/16 13:24:51;;;;;;;;;;;31.40;65.50;;;;;;5114709;28;19956;-76
2021/06/16 13:27:16;;;;;;;;;;;31.40;64.60;;;;;;5114535;28;19904;-76
2021/06/16 13:29:42;;;;;;;;;;;31.50;64.50;;;;;;5113762;28;19903;-74
2021/06/16 13:32:14;;;;;;;;;;;31.70;64.70;;;;;;5114802;28;19919;-73
2021/06/16 13:34:47;;;;;;;;;;;31.90;64.80;;;;;;5112201;27;19966;-74
2021/06/16 13:37:13;;;;;;;;;;;32.00;63.50;;;;;;5110759;28;19912;-73
2021/06/16 13:39:38;;;;;;;;;;;31.80;62.90;;;;;;5111024;28;19908;-74
2021/06/16 13:42:04;;;;;;;;;;;31.70;63.60;;;;;;5111079;28;20309;-75
2021/06/16 13:44:29;;;;;;;;;;;31.70;63.40;;;;;;5110192;28;20272;-75
2021/06/16 13:46:55;;;;;;;;;;;31.50;63.90;;;;;;5110781;28;19951;-74
2021/06/16 13:49:20;;;;;;;;;;;31.50;64.30;;;;;;5111571;28;19912;-75
2021/06/16 13:51:46;;;;;;;;;;;31.60;65.10;;;;;;5110120;28;20431;-75
2021/06/16 13:54:12;;;;;;;;;;;31.90;64.60;;;;;;5110504;28;19986;-76
2021/06/16 13:56:43;;;;;;;;;;;32.00;64.30;;;;;;5110639;28;20290;-76
2021/06/16 13:59:09;;;;;;;;;;;32.30;63.00;;;;;;5110069;28;20391;-76
2021/06/16 14:01:34;;;;;;;;;;;32.40;62.70;;;;;;5110689;28;19959;-74
2021/06/16 14:04:00;;;;;;;;;;;32.70;62.70;;;;;;5110549;28;19912;-74
2021/06/16 14:06:25;;;;;;;;;;;32.90;60.90;;;;;;5110014;28;19908;-76
2021/06/16 14:08:51;;;;;;;;;;;33.00;61.60;;;;;;5110615;28;19915;-75
2021/06/16 14:11:16;;;;;;;;;;;33.10;61.30;;;;;;5109820;28;20329;-75
2021/06/16 14:13:41;;;;;;;;;;;33.20;61.30;;;;;;5110804;28;19923;-76
2021/06/16 14:16:07;;;;;;;;;;;33.30;60.70;;;;;;5110500;28;19908;-75
2021/06/16 14:18:32;;;;;;;;;;;33.50;60.20;;;;;;5109661;28;19988;-76
2021/06/16 14:20:58;;;;;;;;;;;33.50;58.60;;;;;;5110496;28;19908;-76